sensor_id;sensor_type;location;lat;lon;timestamp;pressure;altitude;pressure_sealevel;temperature;humidity
43711;BME280;29309;42.682;23.372;2022-11-15T00:01:33;95795.38;;;3.84;88.15
43711;BME280;29309;42.682;23.372;2022-11-15T00:03:59;95794.28;;;3.87;88.58
43711;BME280;29309;42.682;23.372;2022-11-15T00:06:24;95788.97;;;3.89;88.88
43711;BME280;29309;42.682;23.372;2022-11-15T00:08:49;95795.19;;;3.89;89.18
43711;BME280;29309;42.682;23.372;2022-11-15T00:11:15;95789.84;;;3.91;89.73
43711;BME280;29309;42.682;23.372;2022-11-15T00:13:40;95794.06;;;3.92;90.05
43711;BME280;29309;42.682;23.372;2022-11-15T00:16:06;95790.59;;;3.92;90.40
43711;BME280;29309;42.682;23.372;2022-11-15T00:18:31;95788.41;;;3.90;90.34
43711;BME280;29309;42.682;23.372;2022-11-15T00:21:03;95797.19;;;3.89;90.33
43711;BME280;29309;42.682;23.372;2022-11-15T00:23:30;95790.63;;;3.84;90.11
43711;BME280;29309;42.682;23.372;2022-11-15T00:25:56;95786.59;;;3.85;90.24
43711;BME280;29309;42.682;23.372;2022-11-15T00:28:23;95789.34;;;3.85;90.43
43711;BME280;29309;42.682;23.372;2022-11-15T00:30:48;95783.13;;;3.85;90.63
43711;BME280;29309;42.682;23.372;2022-11-15T00:33:13;95776.16;;;3.84;90.65
43711;BME280;29309;42.682;23.372;2022-11-15T00:35:39;95779.69;;;3.77;90.37
43711;BME280;29309;42.682;23.372;2022-11-15T00:38:04;95769.09;;;3.73;90.17
43711;BME280;29309;42.682;23.372;2022-11-15T00:40:30;95773.16;;;3.72;90.11
43711;BME280;29309;42.682;23.372;2022-11-15T00:42:56;95775.16;;;3.72;89.81
43711;BME280;29309;42.682;23.372;2022-11-15T00:45:21;95772.06;;;3.68;89.56
43711;BME280;29309;42.682;23.372;2022-11-15T00:47:47;95766.78;;;3.62;89.41
43711;BME280;29309;42.682;23.372;2022-11-15T00:50:12;95761.69;;;3.59;89.19
43711;BME280;29309;42.682;23.372;2022-11-15T00:52:38;95769.91;;;3.59;89.31
43711;BME280;29309;42.682;23.372;2022-11-15T00:55:04;95770.31;;;3.55;88.77
43711;BME280;29309;42.682;23.372;2022-11-15T00:57:29;95772.00;;;3.51;88.60
43711;BME280;29309;42.682;23.372;2022-11-15T00:59:55;95766.31;;;3.48;88.58
43711;BME280;29309;42.682;23.372;2022-11-15T01:02:20;95767.59;;;3.47;88.96
43711;BME280;29309;42.682;23.372;2022-11-15T01:04:46;95759.06;;;3.43;88.38
43711;BME280;29309;42.682;23.372;2022-11-15T01:07:11;95759.59;;;3.42;88.21
43711;BME280;29309;42.682;23.372;2022-11-15T01:09:37;95761.63;;;3.41;88.37
43711;BME280;29309;42.682;23.372;2022-11-15T01:12:02;95764.19;;;3.39;88.13
43711;BME280;29309;42.682;23.372;2022-11-15T01:14:28;95762.53;;;3.36;88.22
43711;BME280;29309;42.682;23.372;2022-11-15T01:16:53;95766.03;;;3.37;87.89
43711;BME280;29309;42.682;23.372;2022-11-15T01:19:19;95764.00;;;3.37;88.01
43711;BME280;29309;42.682;23.372;2022-11-15T01:21:44;95768.41;;;3.33;87.82
43711;BME280;29309;42.682;23.372;2022-11-15T01:24:13;95760.56;;;3.29;88.07
43711;BME280;29309;42.682;23.372;2022-11-15T01:26:38;95763.88;;;3.28;87.50
43711;BME280;29309;42.682;23.372;2022-11-15T01:29:04;95765.72;;;3.25;87.02
43711;BME280;29309;42.682;23.372;2022-11-15T01:31:29;95757.31;;;3.23;87.18
43711;BME280;29309;42.682;23.372;2022-11-15T01:33:55;95755.53;;;3.18;86.97
43711;BME280;29309;42.682;23.372;2022-11-15T01:36:21;95761.00;;;3.18;87.25
43711;BME280;29309;42.682;23.372;2022-11-15T01:38:58;95763.56;;;3.16;87.49
43711;BME280;29309;42.682;23.372;2022-11-15T01:41:27;95758.63;;;3.15;87.72
43711;BME280;29309;42.682;23.372;2022-11-15T01:43:55;95755.19;;;3.14;87.47
43711;BME280;29309;42.682;23.372;2022-11-15T01:48:46;95755.72;;;3.13;87.51
43711;BME280;29309;42.682;23.372;2022-11-15T01:51:14;95759.56;;;3.10;87.45
43711;BME280;29309;42.682;23.372;2022-11-15T01:53:45;95759.22;;;3.06;87.40
43711;BME280;29309;42.682;23.372;2022-11-15T01:56:14;95751.03;;;2.98;87.27
43711;BME280;29309;42.682;23.372;2022-11-15T01:58:42;95754.88;;;2.95;87.58
43711;BME280;29309;42.682;23.372;2022-11-15T02:01:08;95749.94;;;2.93;87.28
43711;BME280;29309;42.682;23.372;2022-11-15T02:03:39;95756.16;;;2.94;87.50
43711;BME280;29309;42.682;23.372;2022-11-15T02:06:07;95750.50;;;2.92;87.34
43711;BME280;29309;42.682;23.372;2022-11-15T02:08:33;95757.09;;;2.89;87.23
43711;BME280;29309;42.682;23.372;2022-11-15T02:10:58;95746.31;;;2.83;87.27
43711;BME280;29309;42.682;23.372;2022-11-15T02:13:24;95749.44;;;2.80;87.18
43711;BME280;29309;42.682;23.372;2022-11-15T02:18:50;95750.56;;;2.77;87.10
43711;BME280;29309;42.682;23.372;2022-11-15T02:21:28;95748.94;;;2.74;86.90
43711;BME280;29309;42.682;23.372;2022-11-15T02:32:54;95745.13;;;2.62;86.81
43711;BME280;29309;42.682;23.372;2022-11-15T02:38:08;95743.31;;;2.57;86.65
43711;BME280;29309;42.682;23.372;2022-11-15T02:40:57;95747.69;;;2.52;86.52
43711;BME280;29309;42.682;23.372;2022-11-15T02:43:32;95741.50;;;2.52;86.49
43711;BME280;29309;42.682;23.372;2022-11-15T02:46:36;95742.59;;;2.48;86.28
43711;BME280;29309;42.682;23.372;2022-11-15T02:49:24;95746.25;;;2.43;86.16
43711;BME280;29309;42.682;23.372;2022-11-15T02:51:52;95745.16;;;2.39;85.96
43711;BME280;29309;42.682;23.372;2022-11-15T02:54:22;95750.31;;;2.35;85.65
43711;BME280;29309;42.682;23.372;2022-11-15T02:56:49;95754.84;;;2.32;85.97
43711;BME280;29309;42.682;23.372;2022-11-15T03:04:44;95758.88;;;2.31;86.91
43711;BME280;29309;42.682;23.372;2022-11-15T03:09:52;95749.56;;;2.34;87.99
43711;BME280;29309;42.682;23.372;2022-11-15T03:12:36;95744.47;;;2.31;88.75
43711;BME280;29309;42.682;23.372;2022-11-15T03:15:29;95751.75;;;2.28;88.87
43711;BME280;29309;42.682;23.372;2022-11-15T03:18:03;95747.38;;;2.25;89.06
43711;BME280;29309;42.682;23.372;2022-11-15T03:20:30;95749.38;;;2.25;89.19
43711;BME280;29309;42.682;23.372;2022-11-15T03:23:01;95751.38;;;2.24;89.69
43711;BME280;29309;42.682;23.372;2022-11-15T03:25:29;95747.22;;;2.23;89.92
43711;BME280;29309;42.682;23.372;2022-11-15T03:27:58;95738.25;;;2.23;90.38
43711;BME280;29309;42.682;23.372;2022-11-15T03:30:27;95743.00;;;2.22;90.36
43711;BME280;29309;42.682;23.372;2022-11-15T03:32:56;95741.53;;;2.21;90.67
43711;BME280;29309;42.682;23.372;2022-11-15T03:35:33;95738.63;;;2.19;90.76
43711;BME280;29309;42.682;23.372;2022-11-15T03:40:49;95725.09;;;2.21;90.96
43711;BME280;29309;42.682;23.372;2022-11-15T03:43:41;95725.66;;;2.20;91.10
43711;BME280;29309;42.682;23.372;2022-11-15T03:46:13;95725.66;;;2.20;90.93
43711;BME280;29309;42.682;23.372;2022-11-15T03:49:07;95723.47;;;2.18;91.21
43711;BME280;29309;42.682;23.372;2022-11-15T03:51:34;95727.84;;;2.14;90.84
43711;BME280;29309;42.682;23.372;2022-11-15T03:54:03;95720.56;;;2.16;91.03
43711;BME280;29309;42.682;23.372;2022-11-15T03:56:29;95717.25;;;2.18;90.74
43711;BME280;29309;42.682;23.372;2022-11-15T03:58:54;95713.63;;;2.15;90.89
43711;BME280;29309;42.682;23.372;2022-11-15T04:01:19;95718.19;;;2.13;90.29
43711;BME280;29309;42.682;23.372;2022-11-15T04:03:45;95720.72;;;2.11;90.31
43711;BME280;29309;42.682;23.372;2022-11-15T04:06:10;95721.66;;;2.13;90.31
43711;BME280;29309;42.682;23.372;2022-11-15T04:08:36;95714.34;;;2.16;90.36
43711;BME280;29309;42.682;23.372;2022-11-15T04:11:02;95708.13;;;2.15;90.17
43711;BME280;29309;42.682;23.372;2022-11-15T04:13:27;95717.63;;;2.14;89.72
43711;BME280;29309;42.682;23.372;2022-11-15T04:15:52;95720.00;;;2.18;89.21
43711;BME280;29309;42.682;23.372;2022-11-15T04:18:18;95710.50;;;2.19;89.22
43711;BME280;29309;42.682;23.372;2022-11-15T04:20:43;95705.56;;;2.17;89.03
43711;BME280;29309;42.682;23.372;2022-11-15T04:23:27;95710.13;;;2.15;88.84
43711;BME280;29309;42.682;23.372;2022-11-15T04:26:14;95698.09;;;2.10;88.50
43711;BME280;29309;42.682;23.372;2022-11-15T04:28:41;95705.97;;;2.06;88.42
43711;BME280;29309;42.682;23.372;2022-11-15T04:31:25;95702.13;;;1.94;88.29
43711;BME280;29309;42.682;23.372;2022-11-15T04:33:51;95693.34;;;1.95;88.43
43711;BME280;29309;42.682;23.372;2022-11-15T04:36:17;95701.03;;;1.97;88.80
43711;BME280;29309;42.682;23.372;2022-11-15T04:39:01;95713.81;;;2.02;88.80
43711;BME280;29309;42.682;23.372;2022-11-15T04:41:26;95707.03;;;2.03;88.73
43711;BME280;29309;42.682;23.372;2022-11-15T04:43:52;95701.94;;;1.99;88.96
43711;BME280;29309;42.682;23.372;2022-11-15T04:46:17;95696.84;;;1.88;89.03
43711;BME280;29309;42.682;23.372;2022-11-15T04:48:43;95702.88;;;1.87;89.50
43711;BME280;29309;42.682;23.372;2022-11-15T04:51:08;95706.34;;;1.95;90.55
43711;BME280;29309;42.682;23.372;2022-11-15T04:53:34;95700.69;;;1.93;91.18
43711;BME280;29309;42.682;23.372;2022-11-15T04:55:59;95703.78;;;1.97;91.60
43711;BME280;29309;42.682;23.372;2022-11-15T04:58:24;95702.66;;;2.08;92.67
43711;BME280;29309;42.682;23.372;2022-11-15T05:00:50;95713.06;;;2.17;93.13
43711;BME280;29309;42.682;23.372;2022-11-15T05:03:15;95707.38;;;2.22;93.37
43711;BME280;29309;42.682;23.372;2022-11-15T05:05:59;95699.91;;;2.30;93.87
43711;BME280;29309;42.682;23.372;2022-11-15T05:08:25;95707.53;;;2.39;94.27
43711;BME280;29309;42.682;23.372;2022-11-15T05:10:51;95705.34;;;2.45;94.12
43711;BME280;29309;42.682;23.372;2022-11-15T05:13:17;95702.75;;;2.47;94.37
43711;BME280;29309;42.682;23.372;2022-11-15T05:15:42;95706.97;;;2.56;95.31
43711;BME280;29309;42.682;23.372;2022-11-15T05:18:08;95706.19;;;2.63;95.57
43711;BME280;29309;42.682;23.372;2022-11-15T05:20:33;95706.19;;;2.71;95.63
43711;BME280;29309;42.682;23.372;2022-11-15T05:22:59;95704.50;;;2.75;96.45
43711;BME280;29309;42.682;23.372;2022-11-15T05:25:24;95699.94;;;2.78;96.22
43711;BME280;29309;42.682;23.372;2022-11-15T05:27:50;95704.47;;;2.83;96.81
43711;BME280;29309;42.682;23.372;2022-11-15T05:30:16;95702.06;;;2.87;97.47
43711;BME280;29309;42.682;23.372;2022-11-15T05:32:43;95702.66;;;2.85;97.58
43711;BME280;29309;42.682;23.372;2022-11-15T05:35:17;95703.69;;;2.90;98.45
43711;BME280;29309;42.682;23.372;2022-11-15T05:37:44;95705.53;;;2.95;98.95
43711;BME280;29309;42.682;23.372;2022-11-15T05:40:09;95701.88;;;2.92;99.17
43711;BME280;29309;42.682;23.372;2022-11-15T05:42:35;95699.88;;;2.93;99.55
43711;BME280;29309;42.682;23.372;2022-11-15T05:45:02;95707.72;;;2.96;99.68
43711;BME280;29309;42.682;23.372;2022-11-15T05:47:30;95705.69;;;2.97;100.00
43711;BME280;29309;42.682;23.372;2022-11-15T05:49:56;95710.97;;;3.03;100.00
43711;BME280;29309;42.682;23.372;2022-11-15T05:52:25;95710.25;;;3.02;100.00
43711;BME280;29309;42.682;23.372;2022-11-15T05:54:54;95706.03;;;3.01;100.00
43711;BME280;29309;42.682;23.372;2022-11-15T05:57:21;95713.88;;;3.05;100.00
43711;BME280;29309;42.682;23.372;2022-11-15T05:59:46;95707.13;;;3.06;100.00
43711;BME280;29309;42.682;23.372;2022-11-15T06:02:12;95700.16;;;3.05;100.00
43711;BME280;29309;42.682;23.372;2022-11-15T06:04:37;95708.00;;;3.08;100.00
43711;BME280;29309;42.682;23.372;2022-11-15T06:07:03;95707.97;;;3.16;100.00
43711;BME280;29309;42.682;23.372;2022-11-15T06:09:28;95722.75;;;3.20;100.00
43711;BME280;29309;42.682;23.372;2022-11-15T06:11:54;95716.53;;;3.20;100.00
43711;BME280;29309;42.682;23.372;2022-11-15T06:14:19;95713.66;;;3.18;100.00
43711;BME280;29309;42.682;23.372;2022-11-15T06:16:44;95717.63;;;3.24;100.00
43711;BME280;29309;42.682;23.372;2022-11-15T06:19:10;95709.41;;;3.24;100.00
43711;BME280;29309;42.682;23.372;2022-11-15T06:21:35;95715.63;;;3.25;100.00
43711;BME280;29309;42.682;23.372;2022-11-15T06:24:01;95717.19;;;3.03;100.00
43711;BME280;29309;42.682;23.372;2022-11-15T06:26:26;95719.78;;;2.93;100.00
43711;BME280;29309;42.682;23.372;2022-11-15T06:28:52;95704.84;;;2.79;100.00
43711;BME280;29309;42.682;23.372;2022-11-15T06:31:17;95709.59;;;2.79;100.00
43711;BME280;29309;42.682;23.372;2022-11-15T06:33:43;95712.34;;;2.79;100.00
43711;BME280;29309;42.682;23.372;2022-11-15T06:36:10;95713.25;;;2.81;100.00
43711;BME280;29309;42.682;23.372;2022-11-15T06:38:38;95713.41;;;2.91;100.00
43711;BME280;29309;42.682;23.372;2022-11-15T06:41:06;95701.19;;;2.84;100.00
43711;BME280;29309;42.682;23.372;2022-11-15T06:43:33;95707.38;;;2.92;100.00
43711;BME280;29309;42.682;23.372;2022-11-15T06:45:59;95710.25;;;3.02;100.00
43711;BME280;29309;42.682;23.372;2022-11-15T06:48:26;95709.25;;;3.15;100.00
43711;BME280;29309;42.682;23.372;2022-11-15T06:50:53;95700.03;;;3.27;100.00
43711;BME280;29309;42.682;23.372;2022-11-15T06:53:18;95703.47;;;3.35;100.00
43711;BME280;29309;42.682;23.372;2022-11-15T06:55:44;95708.00;;;3.40;100.00
43711;BME280;29309;42.682;23.372;2022-11-15T06:58:09;95712.72;;;3.47;100.00
43711;BME280;29309;42.682;23.372;2022-11-15T07:00:34;95699.34;;;3.52;100.00
43711;BME280;29309;42.682;23.372;2022-11-15T07:03:00;95700.41;;;3.56;100.00
43711;BME280;29309;42.682;23.372;2022-11-15T07:05:27;95700.91;;;3.62;100.00
43711;BME280;29309;42.682;23.372;2022-11-15T07:07:53;95709.09;;;3.70;100.00
43711;BME280;29309;42.682;23.372;2022-11-15T07:10:20;95699.03;;;3.72;100.00
43711;BME280;29309;42.682;23.372;2022-11-15T07:12:48;95705.56;;;3.77;100.00
43711;BME280;29309;42.682;23.372;2022-11-15T07:15:15;95698.38;;;3.81;100.00
43711;BME280;29309;42.682;23.372;2022-11-15T07:17:41;95701.63;;;3.87;100.00
43711;BME280;29309;42.682;23.372;2022-11-15T07:20:07;95699.78;;;3.90;100.00
43711;BME280;29309;42.682;23.372;2022-11-15T07:22:32;95701.06;;;3.89;99.99
43711;BME280;29309;42.682;23.372;2022-11-15T07:24:58;95686.66;;;3.81;99.11
43711;BME280;29309;42.682;23.372;2022-11-15T07:27:23;95690.69;;;3.80;98.93
43711;BME280;29309;42.682;23.372;2022-11-15T07:29:49;95697.44;;;3.86;98.94
43711;BME280;29309;42.682;23.372;2022-11-15T07:32:14;95695.44;;;3.87;98.65
43711;BME280;29309;42.682;23.372;2022-11-15T07:34:40;95700.91;;;3.87;98.35
43711;BME280;29309;42.682;23.372;2022-11-15T07:37:05;95695.03;;;3.90;98.21
43711;BME280;29309;42.682;23.372;2022-11-15T07:39:31;95698.25;;;3.96;98.43
43711;BME280;29309;42.682;23.372;2022-11-15T07:41:56;95694.94;;;3.98;98.23
43711;BME280;29309;42.682;23.372;2022-11-15T07:44:41;95699.50;;;4.03;98.16
43711;BME280;29309;42.682;23.372;2022-11-15T07:47:07;95687.94;;;4.05;98.54
43711;BME280;29309;42.682;23.372;2022-11-15T07:49:32;95695.53;;;4.14;98.62
43711;BME280;29309;42.682;23.372;2022-11-15T07:51:58;95691.13;;;4.18;98.87
43711;BME280;29309;42.682;23.372;2022-11-15T07:54:23;95692.47;;;4.27;98.68
43711;BME280;29309;42.682;23.372;2022-11-15T07:56:49;95686.28;;;4.26;98.42
43711;BME280;29309;42.682;23.372;2022-11-15T07:59:14;95694.59;;;4.36;98.24
43711;BME280;29309;42.682;23.372;2022-11-15T08:01:39;95693.66;;;4.41;97.77
43711;BME280;29309;42.682;23.372;2022-11-15T08:04:05;95689.03;;;4.43;97.67
43711;BME280;29309;42.682;23.372;2022-11-15T08:06:30;95689.91;;;4.46;97.72
43711;BME280;29309;42.682;23.372;2022-11-15T08:08:56;95693.16;;;4.52;97.09
43711;BME280;29309;42.682;23.372;2022-11-15T08:11:21;95691.13;;;4.53;96.83
43711;BME280;29309;42.682;23.372;2022-11-15T08:13:46;95679.41;;;4.52;96.76
43711;BME280;29309;42.682;23.372;2022-11-15T08:16:12;95683.69;;;4.63;96.21
43711;BME280;29309;42.682;23.372;2022-11-15T08:18:37;95679.94;;;4.68;96.31
43711;BME280;29309;42.682;23.372;2022-11-15T08:21:03;95682.28;;;4.71;96.00
43711;BME280;29309;42.682;23.372;2022-11-15T08:23:29;95680.59;;;4.76;95.67
43711;BME280;29309;42.682;23.372;2022-11-15T08:26:04;95689.31;;;4.82;95.17
43711;BME280;29309;42.682;23.372;2022-11-15T08:28:31;95680.09;;;4.87;94.79
43711;BME280;29309;42.682;23.372;2022-11-15T08:30:57;95680.84;;;4.87;94.66
43711;BME280;29309;42.682;23.372;2022-11-15T08:33:22;95688.09;;;4.92;94.27
43711;BME280;29309;42.682;23.372;2022-11-15T08:35:48;95689.31;;;4.99;93.91
43711;BME280;29309;42.682;23.372;2022-11-15T08:38:13;95685.25;;;5.00;93.66
43711;BME280;29309;42.682;23.372;2022-11-15T08:40:40;95682.97;;;5.06;92.98
43711;BME280;29309;42.682;23.372;2022-11-15T08:43:05;95683.84;;;5.09;92.76
43711;BME280;29309;42.682;23.372;2022-11-15T08:45:32;95669.84;;;5.14;92.63
43711;BME280;29309;42.682;23.372;2022-11-15T08:48:01;95677.22;;;5.12;92.26
43711;BME280;29309;42.682;23.372;2022-11-15T08:50:26;95665.47;;;5.11;92.19
43711;BME280;29309;42.682;23.372;2022-11-15T08:52:55;95667.81;;;5.15;91.62
43711;BME280;29309;42.682;23.372;2022-11-15T08:55:20;95665.78;;;5.15;91.51
43711;BME280;29309;42.682;23.372;2022-11-15T08:57:45;95663.34;;;5.19;91.31
43711;BME280;29309;42.682;23.372;2022-11-15T09:00:12;95656.97;;;5.17;91.07
43711;BME280;29309;42.682;23.372;2022-11-15T09:02:39;95658.69;;;5.12;90.75
43711;BME280;29309;42.682;23.372;2022-11-15T09:05:05;95646.94;;;5.12;90.66
43711;BME280;29309;42.682;23.372;2022-11-15T09:07:31;95647.91;;;5.07;90.76
43711;BME280;29309;42.682;23.372;2022-11-15T09:09:57;95644.47;;;5.06;91.05
43711;BME280;29309;42.682;23.372;2022-11-15T09:12:23;95650.78;;;4.99;90.71
43711;BME280;29309;42.682;23.372;2022-11-15T09:14:49;95637.84;;;4.92;90.40
43711;BME280;29309;42.682;23.372;2022-11-15T09:17:14;95633.06;;;4.92;91.24
43711;BME280;29309;42.682;23.372;2022-11-15T09:19:40;95638.47;;;5.00;90.97
43711;BME280;29309;42.682;23.372;2022-11-15T09:22:07;95634.88;;;5.07;91.32
43711;BME280;29309;42.682;23.372;2022-11-15T09:24:33;95636.50;;;5.10;90.66
43711;BME280;29309;42.682;23.372;2022-11-15T09:26:58;95622.91;;;5.12;90.93
43711;BME280;29309;42.682;23.372;2022-11-15T09:29:24;95618.69;;;5.11;90.89
43711;BME280;29309;42.682;23.372;2022-11-15T09:31:52;95618.44;;;5.17;91.12
43711;BME280;29309;42.682;23.372;2022-11-15T09:34:17;95609.91;;;5.22;91.18
43711;BME280;29309;42.682;23.372;2022-11-15T09:36:43;95614.56;;;5.29;90.89
43711;BME280;29309;42.682;23.372;2022-11-15T09:39:09;95614.47;;;5.37;90.85
43711;BME280;29309;42.682;23.372;2022-11-15T09:50:44;95596.75;;;5.67;89.32
43711;BME280;29309;42.682;23.372;2022-11-15T09:53:14;95597.03;;;5.71;89.59
43711;BME280;29309;42.682;23.372;2022-11-15T09:55:50;95596.19;;;5.78;89.08
43711;BME280;29309;42.682;23.372;2022-11-15T09:58:33;95592.56;;;5.85;89.09
43711;BME280;29309;42.682;23.372;2022-11-15T10:01:20;95587.53;;;5.91;88.69
43711;BME280;29309;42.682;23.372;2022-11-15T10:03:50;95575.34;;;5.94;88.46
43711;BME280;29309;42.682;23.372;2022-11-15T10:06:26;95576.97;;;6.07;87.77
43711;BME280;29309;42.682;23.372;2022-11-15T10:09:06;95574.19;;;6.16;86.89
43711;BME280;29309;42.682;23.372;2022-11-15T10:11:36;95558.97;;;6.15;86.31
43711;BME280;29309;42.682;23.372;2022-11-15T10:27:34;95541.03;;;6.83;82.86
43711;BME280;29309;42.682;23.372;2022-11-15T10:30:00;95545.66;;;6.90;82.40
43711;BME280;29309;42.682;23.372;2022-11-15T10:32:26;95540.38;;;7.04;81.84
43711;BME280;29309;42.682;23.372;2022-11-15T10:34:52;95538.56;;;7.18;81.30
43711;BME280;29309;42.682;23.372;2022-11-15T10:37:28;95527.16;;;7.33;80.30
43711;BME280;29309;42.682;23.372;2022-11-15T10:40:18;95526.09;;;7.38;80.05
43711;BME280;29309;42.682;23.372;2022-11-15T10:42:44;95520.13;;;7.42;79.87
43711;BME280;29309;42.682;23.372;2022-11-15T10:45:27;95515.28;;;7.52;79.58
43711;BME280;29309;42.682;23.372;2022-11-15T10:50:44;95497.59;;;7.67;78.41
43711;BME280;29309;42.682;23.372;2022-11-15T10:53:28;95511.06;;;7.72;78.31
43711;BME280;29309;42.682;23.372;2022-11-15T10:55:57;95508.25;;;7.82;77.29
43711;BME280;29309;42.682;23.372;2022-11-15T10:58:41;95498.38;;;7.79;77.47
43711;BME280;29309;42.682;23.372;2022-11-15T11:03:40;95485.47;;;7.72;77.19
43711;BME280;29309;42.682;23.372;2022-11-15T11:06:12;95478.19;;;7.76;77.65
43711;BME280;29309;42.682;23.372;2022-11-15T11:08:39;95474.69;;;7.76;77.73
43711;BME280;29309;42.682;23.372;2022-11-15T11:11:05;95476.00;;;7.75;77.48
43711;BME280;29309;42.682;23.372;2022-11-15T11:13:39;95473.50;;;7.79;77.87
43711;BME280;29309;42.682;23.372;2022-11-15T11:18:45;95462.41;;;8.00;77.59
43711;BME280;29309;42.682;23.372;2022-11-15T11:21:17;95458.97;;;8.11;77.25
43711;BME280;29309;42.682;23.372;2022-11-15T11:23:54;95464.66;;;8.13;76.52
43711;BME280;29309;42.682;23.372;2022-11-15T11:29:14;95456.00;;;8.19;76.76
43711;BME280;29309;42.682;23.372;2022-11-15T11:40:16;95425.44;;;8.84;75.23
43711;BME280;29309;42.682;23.372;2022-11-15T11:43:02;95412.06;;;9.16;73.24
43711;BME280;29309;42.682;23.372;2022-11-15T11:50:52;95400.69;;;9.83;69.62
43711;BME280;29309;42.682;23.372;2022-11-15T11:53:31;95402.59;;;10.06;68.82
43711;BME280;29309;42.682;23.372;2022-11-15T11:56:02;95398.44;;;10.44;68.26
43711;BME280;29309;42.682;23.372;2022-11-15T11:58:44;95399.13;;;10.83;66.84
43711;BME280;29309;42.682;23.372;2022-11-15T12:01:24;95385.38;;;10.99;64.65
43711;BME280;29309;42.682;23.372;2022-11-15T12:03:59;95379.56;;;11.22;63.93
43711;BME280;29309;42.682;23.372;2022-11-15T12:06:31;95381.13;;;11.39;63.19
43711;BME280;29309;42.682;23.372;2022-11-15T12:09:12;95372.78;;;11.39;61.83
43711;BME280;29309;42.682;23.372;2022-11-15T12:16:59;95359.22;;;11.04;63.48
43711;BME280;29309;42.682;23.372;2022-11-15T12:19:29;95354.09;;;10.99;63.50
43711;BME280;29309;42.682;23.372;2022-11-15T12:24:52;95351.69;;;10.13;65.78
43711;BME280;29309;42.682;23.372;2022-11-15T12:27:36;95349.16;;;9.67;67.99
43711;BME280;29309;42.682;23.372;2022-11-15T12:30:10;95341.13;;;9.22;69.35
43711;BME280;29309;42.682;23.372;2022-11-15T12:32:38;95339.97;;;8.90;71.15
43711;BME280;29309;42.682;23.372;2022-11-15T12:35:20;95333.88;;;8.69;72.37
43711;BME280;29309;42.682;23.372;2022-11-15T12:37:51;95328.81;;;8.54;73.38
43711;BME280;29309;42.682;23.372;2022-11-15T12:43:09;95325.94;;;8.28;75.11
43711;BME280;29309;42.682;23.372;2022-11-15T12:45:43;95323.88;;;8.17;75.77
43711;BME280;29309;42.682;23.372;2022-11-15T12:56:16;95310.13;;;7.84;78.08
43711;BME280;29309;42.682;23.372;2022-11-15T12:58:47;95305.06;;;7.81;78.45
43711;BME280;29309;42.682;23.372;2022-11-15T13:06:51;95303.13;;;7.83;79.26
43711;BME280;29309;42.682;23.372;2022-11-15T13:11:56;95298.19;;;7.82;79.34
43711;BME280;29309;42.682;23.372;2022-11-15T13:19:59;95287.66;;;7.90;79.09
43711;BME280;29309;42.682;23.372;2022-11-15T13:22:27;95283.19;;;7.85;79.20
43711;BME280;29309;42.682;23.372;2022-11-15T13:25:21;95282.59;;;7.86;79.42
43711;BME280;29309;42.682;23.372;2022-11-15T13:27:51;95276.09;;;7.82;79.63
43711;BME280;29309;42.682;23.372;2022-11-15T13:30:22;95278.84;;;7.82;79.37
43711;BME280;29309;42.682;23.372;2022-11-15T13:32:49;95277.44;;;7.81;80.20
43711;BME280;29309;42.682;23.372;2022-11-15T13:35:26;95265.03;;;7.82;80.00
43711;BME280;29309;42.682;23.372;2022-11-15T13:37:54;95270.81;;;7.86;79.98
43711;BME280;29309;42.682;23.372;2022-11-15T13:40:29;95270.94;;;7.88;79.30
43711;BME280;29309;42.682;23.372;2022-11-15T13:42:57;95268.91;;;7.88;79.59
43711;BME280;29309;42.682;23.372;2022-11-15T13:45:24;95269.59;;;7.89;79.65
43711;BME280;29309;42.682;23.372;2022-11-15T13:47:57;95262.91;;;7.92;80.00
43711;BME280;29309;42.682;23.372;2022-11-15T13:50:33;95276.09;;;7.93;79.93
43711;BME280;29309;42.682;23.372;2022-11-15T13:53:02;95272.75;;;7.95;79.45
43711;BME280;29309;42.682;23.372;2022-11-15T13:55:31;95261.69;;;7.95;79.52
43711;BME280;29309;42.682;23.372;2022-11-15T13:58:00;95267.22;;;7.95;79.83
43711;BME280;29309;42.682;23.372;2022-11-15T14:06:11;95254.84;;;7.96;79.20
43711;BME280;29309;42.682;23.372;2022-11-15T14:08:38;95249.91;;;7.95;79.59
43711;BME280;29309;42.682;23.372;2022-11-15T14:11:19;95249.91;;;7.95;79.73
43711;BME280;29309;42.682;23.372;2022-11-15T14:16:46;95251.84;;;7.92;79.30
43711;BME280;29309;42.682;23.372;2022-11-15T14:24:36;95244.63;;;7.87;80.51
43711;BME280;29309;42.682;23.372;2022-11-15T14:27:22;95252.19;;;7.86;80.24
43711;BME280;29309;42.682;23.372;2022-11-15T14:29:48;95244.97;;;7.81;80.43
43711;BME280;29309;42.682;23.372;2022-11-15T14:32:45;95255.31;;;7.81;80.75
43711;BME280;29309;42.682;23.372;2022-11-15T14:35:20;95249.66;;;7.79;80.74
43711;BME280;29309;42.682;23.372;2022-11-15T14:37:46;95249.53;;;7.77;80.62
43711;BME280;29309;42.682;23.372;2022-11-15T14:40:18;95250.59;;;7.72;80.62
43711;BME280;29309;42.682;23.372;2022-11-15T14:42:45;95251.22;;;7.70;81.13
43711;BME280;29309;42.682;23.372;2022-11-15T14:45:17;95253.72;;;7.66;81.29
43711;BME280;29309;42.682;23.372;2022-11-15T14:47:43;95247.22;;;7.62;81.02
43711;BME280;29309;42.682;23.372;2022-11-15T14:52:38;95248.44;;;7.59;81.71
43711;BME280;29309;42.682;23.372;2022-11-15T14:55:21;95256.31;;;7.53;81.79
43711;BME280;29309;42.682;23.372;2022-11-15T14:57:48;95245.63;;;7.47;82.44
43711;BME280;29309;42.682;23.372;2022-11-15T15:00:14;95250.91;;;7.43;82.32
43711;BME280;29309;42.682;23.372;2022-11-15T15:02:42;95259.09;;;7.41;82.93
43711;BME280;29309;42.682;23.372;2022-11-15T15:05:21;95247.31;;;7.40;82.91
43711;BME280;29309;42.682;23.372;2022-11-15T15:07:48;95253.41;;;7.39;83.53
43711;BME280;29309;42.682;23.372;2022-11-15T15:10:15;95252.56;;;7.36;84.03
43711;BME280;29309;42.682;23.372;2022-11-15T15:12:41;95246.69;;;7.30;83.80